createdAt,value
2023-04-16T00:01:30.349Z,7.98
2023-04-16T00:04:35.682Z,7.97
2023-04-16T00:07:39.510Z,7.95
2023-04-16T00:10:43.443Z,7.89
2023-04-16T00:13:47.008Z,7.86
2023-04-16T00:16:51.177Z,7.86
2023-04-16T00:19:56.176Z,7.83
2023-04-16T00:23:00.281Z,7.81
2023-04-16T00:26:03.690Z,7.82
2023-04-16T00:29:07.850Z,7.78
2023-04-16T00:32:11.828Z,7.74
2023-04-16T00:35:17.189Z,7.73
2023-04-16T00:38:20.932Z,7.68
2023-04-16T00:41:26.798Z,7.63
2023-04-16T00:44:30.681Z,7.62
2023-04-16T00:47:35.351Z,7.61
2023-04-16T00:50:40.326Z,7.62
2023-04-16T00:53:46.654Z,7.61
2023-04-16T00:56:51.165Z,7.57
2023-04-16T00:59:56.483Z,7.57
2023-04-16T01:03:01.357Z,7.53
2023-04-16T01:06:07.765Z,7.44
2023-04-16T01:09:11.771Z,7.36
2023-04-16T01:12:15.860Z,7.30
2023-04-16T01:15:19.499Z,7.27
2023-04-16T01:18:25.084Z,7.20
2023-04-16T01:21:30.025Z,7.14
2023-04-16T01:24:34.121Z,7.14
2023-04-16T01:27:37.606Z,7.11
2023-04-16T01:30:41.808Z,7.11
2023-04-16T01:34:11.502Z,7.15
2023-04-16T01:37:17.004Z,7.22
2023-04-16T01:40:21.285Z,7.30
2023-04-16T01:43:25.036Z,7.37
2023-04-16T01:46:32.117Z,7.41
2023-04-16T01:49:36.495Z,7.48
2023-04-16T01:52:41.465Z,7.59
2023-04-16T01:55:45.338Z,7.65
2023-04-16T01:58:48.957Z,7.63
2023-04-16T02:01:55.205Z,7.69
2023-04-16T02:04:59.290Z,7.72
2023-04-16T02:08:04.948Z,7.73
2023-04-16T02:11:08.526Z,7.71
2023-04-16T02:14:12.818Z,7.65
2023-04-16T02:17:17.418Z,7.59
2023-04-16T02:20:22.898Z,7.54
2023-04-16T02:23:34.053Z,7.50
2023-04-16T02:26:38.029Z,7.50
2023-04-16T02:29:47.030Z,7.45
2023-04-16T02:32:54.065Z,7.41
2023-04-16T02:35:57.935Z,7.43
2023-04-16T02:39:03.549Z,7.48
2023-04-16T02:42:07.092Z,7.50
2023-04-16T02:45:12.946Z,7.54
2023-04-16T02:48:18.071Z,7.54
2023-04-16T02:51:22.134Z,7.56
2023-04-16T02:54:27.166Z,7.58
2023-04-16T02:57:31.001Z,7.58
2023-04-16T03:00:34.502Z,7.60
2023-04-16T03:03:38.314Z,7.63
2023-04-16T03:06:41.943Z,7.64
2023-04-16T03:09:47.198Z,7.64
2023-04-16T03:12:50.931Z,7.66
2023-04-16T03:15:54.758Z,7.69
2023-04-16T03:18:58.458Z,7.70
2023-04-16T03:22:02.476Z,7.74
2023-04-16T03:25:08.763Z,7.77
2023-04-16T03:28:12.620Z,7.78
2023-04-16T03:31:16.530Z,7.80
2023-04-16T03:34:20.585Z,7.83
2023-04-16T03:37:24.500Z,7.86
2023-04-16T03:40:29.933Z,7.85
2023-04-16T03:43:34.215Z,7.86
2023-04-16T03:46:38.335Z,7.91
2023-04-16T03:49:41.834Z,7.96
2023-04-16T03:52:46.937Z,8.02
2023-04-16T03:55:53.763Z,8.03
2023-04-16T03:58:58.685Z,8.02
2023-04-16T04:02:02.574Z,7.99
2023-04-16T04:05:07.160Z,8.01
2023-04-16T04:08:11.088Z,8.06
2023-04-16T04:11:16.818Z,8.11
2023-04-16T04:14:21.210Z,8.16
2023-04-16T04:17:25.303Z,8.22
2023-04-16T04:20:28.800Z,8.26
2023-04-16T04:23:33.006Z,8.30
2023-04-16T04:26:37.859Z,8.27
2023-04-16T04:29:41.913Z,8.27
2023-04-16T04:32:45.484Z,8.27
2023-04-16T04:35:49.660Z,8.31
2023-04-16T04:38:53.615Z,8.32
2023-04-16T04:42:03.181Z,8.29
2023-04-16T04:45:08.327Z,8.23
2023-04-16T04:48:12.785Z,8.21
2023-04-16T04:51:16.406Z,8.15
2023-04-16T04:54:22.752Z,8.06
2023-04-16T04:57:27.763Z,8.00
2023-04-16T05:00:32.233Z,7.96
2023-04-16T05:03:36.073Z,7.96
2023-04-16T05:06:40.119Z,7.96
2023-04-16T05:09:43.755Z,7.95
2023-04-16T05:12:49.552Z,8.02
2023-04-16T05:15:53.022Z,8.05
2023-04-16T05:18:58.000Z,8.10
2023-04-16T05:22:02.244Z,8.19
2023-04-16T05:25:07.046Z,8.29
2023-04-16T05:28:12.262Z,8.35
2023-04-16T05:31:16.156Z,8.40
2023-04-16T05:34:19.717Z,8.39
2023-04-16T05:37:23.737Z,8.31
2023-04-16T05:40:27.155Z,8.31
2023-04-16T05:43:32.487Z,8.32
2023-04-16T05:46:36.030Z,8.35
2023-04-16T05:49:39.698Z,8.36
2023-04-16T05:52:43.230Z,8.40
2023-04-16T05:55:47.085Z,8.46
2023-04-16T05:58:52.077Z,8.49
2023-04-16T06:01:55.820Z,8.54
2023-04-16T06:04:59.228Z,8.56
2023-04-16T06:08:02.989Z,8.61
2023-04-16T06:11:06.771Z,8.70
2023-04-16T06:14:12.433Z,8.78
2023-04-16T06:17:15.803Z,8.81
2023-04-16T06:20:19.551Z,8.86
2023-04-16T06:23:22.962Z,8.97
2023-04-16T06:26:26.877Z,9.04
2023-04-16T06:29:40.346Z,9.17
2023-04-16T06:32:46.571Z,9.27
2023-04-16T06:35:50.309Z,9.36
2023-04-16T06:38:54.453Z,9.48
2023-04-16T06:41:58.353Z,9.52
2023-04-16T06:45:03.820Z,9.56
2023-04-16T06:48:08.231Z,9.65
2023-04-16T06:51:13.237Z,9.67
2023-04-16T06:54:16.893Z,9.68
2023-04-16T06:57:20.995Z,9.72
2023-04-16T07:00:26.065Z,9.83
2023-04-16T07:03:30.121Z,9.88
2023-04-16T07:06:33.742Z,9.94
2023-04-16T07:09:37.693Z,10.02
2023-04-16T07:12:41.286Z,10.09
2023-04-16T07:15:46.728Z,10.02
2023-04-16T07:18:50.536Z,9.90
2023-04-16T07:21:54.488Z,9.91
2023-04-16T07:24:58.206Z,9.93
2023-04-16T07:28:02.285Z,9.98
2023-04-16T07:31:07.678Z,9.97
2023-04-16T07:34:11.598Z,9.91
2023-04-16T07:37:15.341Z,9.90
2023-04-16T07:40:19.437Z,9.82
2023-04-16T07:43:22.939Z,9.85
2023-04-16T07:46:33.333Z,9.91
2023-04-16T07:49:46.829Z,10.02
2023-04-16T07:52:50.642Z,10.12
2023-04-16T07:55:54.019Z,10.20
2023-04-16T07:59:14.484Z,10.24
2023-04-16T08:02:23.177Z,10.31
2023-04-16T08:05:27.176Z,10.39
2023-04-16T08:08:30.792Z,10.47
2023-04-16T08:11:34.574Z,10.48
2023-04-16T08:14:37.928Z,10.55
2023-04-16T08:17:43.137Z,10.63
2023-04-16T08:20:46.876Z,10.69
2023-04-16T08:23:50.623Z,10.87
2023-04-16T08:26:54.107Z,11.13
2023-04-16T08:29:57.818Z,11.35
2023-04-16T08:33:03.018Z,11.59
2023-04-16T08:36:07.271Z,11.84
2023-04-16T08:39:11.031Z,11.95
2023-04-16T08:42:27.099Z,12.09
2023-04-16T08:45:32.130Z,12.05
2023-04-16T08:48:39.142Z,11.96
2023-04-16T08:51:51.155Z,11.80
2023-04-16T08:55:05.189Z,11.59
2023-04-16T08:58:15.000Z,11.41
2023-04-16T09:01:20.901Z,11.20
2023-04-16T09:04:29.426Z,11.12
2023-04-16T09:07:35.510Z,11.21
2023-04-16T09:10:38.966Z,11.31
2023-04-16T09:13:42.705Z,11.36
2023-04-16T09:16:47.899Z,11.42
2023-04-16T09:19:53.189Z,11.57
2023-04-16T09:22:57.048Z,11.69
2023-04-16T09:26:01.229Z,11.82
2023-04-16T09:29:04.878Z,11.87
2023-04-16T09:32:11.258Z,11.92
2023-04-16T09:35:17.064Z,12.01
2023-04-16T09:38:21.512Z,12.14
2023-04-16T09:41:28.567Z,12.29
2023-04-16T09:44:37.881Z,12.41
2023-04-16T09:47:43.249Z,12.61
2023-04-16T09:50:52.930Z,12.84
2023-04-16T09:53:58.546Z,13.01
2023-04-16T09:57:02.675Z,13.07
2023-04-16T10:00:09.322Z,13.19
2023-04-16T10:03:13.064Z,13.40
2023-04-16T10:06:21.728Z,13.50
2023-04-16T10:09:25.699Z,13.62
2023-04-16T10:12:32.648Z,13.68
2023-04-16T10:15:36.575Z,13.78
2023-04-16T10:18:42.577Z,13.93
2023-04-16T10:21:48.952Z,13.95
2023-04-16T10:24:54.230Z,14.03
2023-04-16T10:28:00.136Z,14.09
2023-04-16T10:31:06.777Z,13.99
2023-04-16T10:34:11.914Z,14.09
2023-04-16T10:37:18.966Z,14.14
2023-04-16T10:40:27.782Z,14.06
2023-04-16T10:43:32.667Z,14.26
2023-04-16T10:46:40.697Z,14.34
2023-04-16T10:49:44.982Z,14.44
2023-04-16T10:52:50.093Z,14.57
2023-04-16T10:56:15.786Z,14.69
2023-04-16T10:59:22.444Z,14.90
2023-04-16T11:02:30.399Z,15.08
2023-04-16T11:05:47.911Z,15.33
2023-04-16T11:08:55.409Z,15.59
2023-04-16T11:11:59.791Z,15.85
2023-04-16T11:15:06.849Z,16.07
2023-04-16T11:18:10.912Z,16.25
2023-04-16T11:21:14.668Z,16.36
2023-04-16T11:24:20.054Z,16.59
2023-04-16T11:27:24.077Z,17.07
2023-04-16T11:30:34.055Z,17.65
2023-04-16T11:33:38.943Z,18.25
2023-04-16T11:36:46.159Z,18.58
2023-04-16T11:39:52.879Z,18.73
2023-04-16T11:42:58.041Z,18.77
2023-04-16T11:46:12.892Z,18.71
2023-04-16T11:49:30.621Z,18.83
2023-04-16T11:52:36.367Z,18.98
2023-04-16T11:55:46.161Z,19.22
2023-04-16T11:59:09.076Z,19.57
2023-04-16T12:02:13.050Z,19.88
2023-04-16T12:05:32.222Z,20.11
2023-04-16T12:08:36.259Z,20.10
2023-04-16T12:11:41.787Z,20.02
2023-04-16T12:14:52.212Z,19.69
2023-04-16T12:18:09.571Z,19.32
2023-04-16T12:21:13.637Z,19.05
2023-04-16T12:24:20.949Z,19.17
2023-04-16T12:27:28.698Z,19.28
2023-04-16T12:30:32.195Z,19.14
2023-04-16T12:33:35.904Z,19.00
2023-04-16T12:36:39.447Z,18.99
2023-04-16T12:39:43.217Z,19.74
2023-04-16T12:42:48.210Z,20.29
2023-04-16T12:45:52.156Z,20.10
2023-04-16T12:48:56.775Z,20.00
2023-04-16T12:52:00.928Z,19.46
2023-04-16T12:55:04.716Z,19.82
2023-04-16T12:58:12.491Z,23.23
2023-04-16T13:01:16.392Z,26.47
2023-04-16T13:04:21.154Z,25.41
2023-04-16T13:07:26.924Z,23.63
2023-04-16T13:10:31.352Z,22.19
2023-04-16T13:13:36.516Z,21.15
2023-04-16T13:16:40.494Z,20.40
2023-04-16T13:19:44.025Z,19.86
2023-04-16T13:22:48.110Z,19.53
2023-04-16T13:25:51.735Z,19.32
2023-04-16T13:28:58.096Z,19.16
2023-04-16T13:32:03.636Z,19.13
2023-04-16T13:35:07.931Z,21.65
2023-04-16T13:38:12.283Z,27.25
2023-04-16T13:41:16.280Z,31.50
2023-04-16T13:44:21.443Z,34.51
2023-04-16T13:47:26.330Z,36.34
2023-04-16T13:50:29.867Z,36.26
2023-04-16T13:53:33.798Z,32.87
2023-04-16T13:56:37.367Z,29.63
2023-04-16T13:59:42.685Z,27.24
2023-04-16T14:02:48.665Z,28.03
2023-04-16T14:05:52.687Z,27.80
2023-04-16T14:08:56.054Z,25.80
2023-04-16T14:12:00.116Z,23.96
2023-04-16T14:15:06.765Z,22.50
2023-04-16T14:18:10.824Z,21.52
2023-04-16T14:21:14.799Z,20.70
2023-04-16T14:24:18.585Z,20.08
2023-04-16T14:27:22.181Z,19.65
2023-04-16T14:30:27.427Z,19.49
2023-04-16T14:33:31.053Z,19.53
2023-04-16T14:36:35.277Z,19.88
2023-04-16T14:39:39.339Z,21.09
2023-04-16T14:42:43.437Z,23.71
2023-04-16T14:45:48.248Z,26.21
2023-04-16T14:48:52.041Z,28.77
2023-04-16T14:51:56.607Z,31.10
2023-04-16T14:55:00.601Z,32.27
2023-04-16T14:58:04.065Z,33.32
2023-04-16T15:01:09.573Z,34.97
2023-04-16T15:04:13.500Z,35.99
2023-04-16T15:07:17.598Z,36.53
2023-04-16T15:10:21.176Z,36.80
2023-04-16T15:13:25.116Z,36.83
2023-04-16T15:16:30.139Z,36.74
2023-04-16T15:19:34.072Z,36.76
2023-04-16T15:22:38.086Z,36.61
2023-04-16T15:25:42.912Z,36.46
2023-04-16T15:28:46.300Z,36.34
2023-04-16T15:31:51.811Z,36.06
2023-04-16T15:34:55.284Z,35.69
2023-04-16T15:37:59.404Z,35.16
2023-04-16T15:41:02.804Z,34.86
2023-04-16T15:44:06.813Z,34.90
2023-04-16T15:47:11.607Z,34.18
2023-04-16T15:50:15.905Z,33.08
2023-04-16T15:53:19.390Z,32.30
2023-04-16T15:56:23.348Z,31.79
2023-04-16T15:59:27.020Z,31.64
2023-04-16T16:02:32.490Z,31.11
2023-04-16T16:05:36.244Z,30.68
2023-04-16T16:08:40.181Z,30.76
2023-04-16T16:11:43.537Z,30.11
2023-04-16T16:14:47.896Z,29.31
2023-04-16T16:17:53.482Z,28.57
2023-04-16T16:20:58.903Z,27.37
2023-04-16T16:24:02.410Z,26.66
2023-04-16T16:27:07.128Z,26.36
2023-04-16T16:30:12.060Z,25.94
2023-04-16T16:33:17.680Z,25.43
2023-04-16T16:36:21.107Z,24.77
2023-04-16T16:39:26.257Z,24.27
2023-04-16T16:42:29.654Z,23.49
2023-04-16T16:45:33.712Z,22.62
2023-04-16T16:48:38.480Z,22.02
2023-04-16T16:51:42.235Z,21.86
2023-04-16T16:54:45.707Z,21.18
2023-04-16T16:57:50.055Z,20.20
2023-04-16T17:00:53.422Z,19.33
2023-04-16T17:03:59.111Z,18.61
2023-04-16T17:07:02.582Z,18.03
2023-04-16T17:10:08.289Z,17.54
2023-04-16T17:13:13.639Z,17.09
2023-04-16T17:16:17.738Z,16.70
2023-04-16T17:19:22.536Z,16.39
2023-04-16T17:22:26.390Z,16.05
2023-04-16T17:25:29.932Z,15.73
2023-04-16T17:28:34.080Z,15.45
2023-04-16T17:31:37.780Z,15.20
2023-04-16T17:34:43.331Z,14.94
2023-04-16T17:37:46.714Z,14.72
2023-04-16T17:40:50.771Z,14.55
2023-04-16T17:43:54.174Z,14.35
2023-04-16T17:46:58.710Z,14.14
2023-04-16T17:50:03.872Z,13.96
2023-04-16T17:53:07.989Z,13.80
2023-04-16T17:56:11.655Z,13.66
2023-04-16T17:59:15.690Z,13.50
2023-04-16T18:02:19.282Z,13.36
2023-04-16T18:05:25.123Z,13.25
2023-04-16T18:08:28.790Z,13.15
2023-04-16T18:11:32.581Z,13.05
2023-04-16T18:14:37.036Z,12.97
2023-04-16T18:17:41.086Z,12.86
2023-04-16T18:20:45.955Z,12.77
2023-04-16T18:23:49.957Z,12.69
2023-04-16T18:26:55.109Z,12.59
2023-04-16T18:29:59.507Z,12.52
2023-04-16T18:36:11.738Z,12.34
2023-04-16T18:39:15.303Z,12.26
2023-04-16T18:42:19.380Z,12.18
2023-04-16T18:45:22.746Z,12.08
2023-04-16T18:48:26.475Z,12.00
2023-04-16T18:51:31.658Z,11.96
2023-04-16T18:54:36.598Z,11.92
2023-04-16T18:57:40.185Z,11.89
2023-04-16T19:00:44.265Z,11.82
2023-04-16T19:03:47.824Z,11.76
2023-04-16T19:06:53.351Z,11.70
2023-04-16T19:09:56.876Z,11.64
2023-04-16T19:13:00.932Z,11.58
2023-04-16T19:16:06.062Z,11.53
2023-04-16T19:19:10.462Z,11.48
2023-04-16T19:22:15.424Z,11.42
2023-04-16T19:25:19.460Z,11.36
2023-04-16T19:28:22.924Z,11.31
2023-04-16T19:31:27.768Z,11.25
2023-04-16T19:34:31.305Z,11.20
2023-04-16T19:37:36.806Z,11.13
2023-04-16T19:40:40.338Z,11.05
2023-04-16T19:43:44.149Z,11.00
2023-04-16T19:46:47.507Z,10.94
2023-04-16T19:49:51.809Z,10.87
2023-04-16T19:52:56.623Z,10.82
2023-04-16T19:56:00.540Z,10.77
2023-04-16T19:59:04.114Z,10.73
2023-04-16T20:02:08.463Z,10.69
2023-04-16T20:05:11.897Z,10.64
2023-04-16T20:08:17.314Z,10.62
2023-04-16T20:11:20.817Z,10.57
2023-04-16T20:14:24.756Z,10.52
2023-04-16T20:17:28.170Z,10.48
2023-04-16T20:20:31.965Z,10.42
2023-04-16T20:23:36.758Z,10.38
2023-04-16T20:26:40.704Z,10.35
2023-04-16T20:29:44.055Z,10.28
2023-04-16T20:32:48.062Z,10.25
2023-04-16T20:35:52.248Z,10.21
2023-04-16T20:38:59.402Z,10.18
2023-04-16T20:42:04.222Z,10.14
2023-04-16T20:45:11.116Z,10.11
2023-04-16T20:48:14.624Z,10.09
2023-04-16T20:51:18.613Z,10.07
2023-04-16T20:54:24.623Z,10.08
2023-04-16T20:57:29.694Z,10.05
2023-04-16T21:00:33.312Z,9.99
2023-04-16T21:03:37.366Z,9.96
2023-04-16T21:06:42.939Z,9.95
2023-04-16T21:09:48.247Z,9.92
2023-04-16T21:12:51.651Z,9.89
2023-04-16T21:15:55.595Z,9.84
2023-04-16T21:18:59.748Z,9.81
2023-04-16T21:22:03.725Z,9.74
2023-04-16T21:25:10.553Z,9.68
2023-04-16T21:28:14.736Z,9.62
2023-04-16T21:31:18.823Z,9.56
2023-04-16T21:34:22.954Z,9.53
2023-04-16T21:37:26.323Z,9.50
2023-04-16T21:40:31.652Z,9.47
2023-04-16T21:43:35.085Z,9.42
2023-04-16T21:46:38.881Z,9.37
2023-04-16T21:49:42.827Z,9.31
2023-04-16T21:52:47.170Z,9.24
2023-04-16T21:55:52.054Z,9.20
2023-04-16T21:58:55.811Z,9.15
2023-04-16T22:01:59.245Z,9.11
2023-04-16T22:05:03.240Z,9.07
2023-04-16T22:08:23.265Z,9.05
2023-04-16T22:11:29.543Z,9.02
2023-04-16T22:14:32.958Z,8.97
2023-04-16T22:17:36.938Z,8.90
2023-04-16T22:20:40.411Z,8.87
2023-04-16T22:23:46.719Z,8.83
2023-04-16T22:26:51.525Z,8.80
2023-04-16T22:29:55.350Z,8.77
2023-04-16T22:32:58.901Z,8.75
2023-04-16T22:36:02.555Z,8.70
2023-04-16T22:39:08.569Z,8.66
2023-04-16T22:42:13.855Z,8.62
2023-04-16T22:45:17.441Z,8.54
2023-04-16T22:48:21.306Z,8.50
2023-04-16T22:51:25.351Z,8.48
2023-04-16T22:54:29.979Z,8.45
2023-04-16T22:57:34.748Z,8.41
2023-04-16T23:00:38.439Z,8.36
2023-04-16T23:03:41.911Z,8.34
2023-04-16T23:06:46.427Z,8.31
2023-04-16T23:09:49.849Z,8.27
2023-04-16T23:12:55.366Z,8.25
2023-04-16T23:15:58.946Z,8.24
2023-04-16T23:19:02.783Z,8.22
2023-04-16T23:22:06.163Z,8.20
2023-04-16T23:25:11.185Z,8.17
2023-04-16T23:28:16.005Z,8.15
2023-04-16T23:31:20.319Z,8.09
2023-04-16T23:34:23.793Z,8.07
2023-04-16T23:37:28.019Z,8.05
2023-04-16T23:40:31.638Z,8.06
2023-04-16T23:43:40.012Z,8.08
2023-04-16T23:46:43.532Z,8.09
2023-04-16T23:49:47.380Z,8.08
2023-04-16T23:52:50.964Z,8.06
2023-04-16T23:55:54.721Z,8.00
2023-04-16T23:58:59.570Z,7.97
